createdAt,value
2019-02-26T00:00:27.609Z,69.33
2019-02-26T00:01:28.765Z,69.54
2019-02-26T00:02:28.786Z,69.85
2019-02-26T00:03:28.633Z,70.06
2019-02-26T00:04:29.597Z,70.17
2019-02-26T00:05:28.520Z,69.74
2019-02-26T00:06:28.456Z,70.48
2019-02-26T00:07:29.861Z,70.37
2019-02-26T00:08:29.630Z,70.06
2019-02-26T00:09:28.364Z,69.85
2019-02-26T00:10:28.996Z,69.96
2019-02-26T00:11:29.018Z,69.64
2019-02-26T00:12:28.782Z,69.96
2019-02-26T00:13:29.455Z,70.40
2019-02-26T00:14:30.145Z,70.06
2019-02-26T00:15:31.294Z,70.27
2019-02-26T00:16:28.445Z,70.48
2019-02-26T00:17:27.427Z,70.27
2019-02-26T00:18:27.441Z,70.37
2019-02-26T00:19:27.407Z,70.58
2019-02-26T00:20:29.193Z,70.37
2019-02-26T00:21:29.269Z,70.37
2019-02-26T00:22:27.374Z,70.48
2019-02-26T00:23:28.036Z,70.58
2019-02-26T00:24:30.608Z,70.48
2019-02-26T00:25:27.341Z,70.27
2019-02-26T00:26:27.328Z,70.27
2019-02-26T00:27:28.112Z,70.37
2019-02-26T00:28:27.332Z,70.58
2019-02-26T00:29:28.114Z,70.79
2019-02-26T00:30:27.285Z,71.20
2019-02-26T00:31:28.851Z,70.89
2019-02-26T00:32:27.262Z,71.00
2019-02-26T00:33:28.882Z,70.68
2019-02-26T00:34:27.274Z,71.10
2019-02-26T00:35:27.756Z,71.13
2019-02-26T00:36:29.244Z,70.58
2019-02-26T00:37:28.427Z,70.92
2019-02-26T00:38:27.196Z,70.82
2019-02-26T00:39:29.065Z,70.82
2019-02-26T00:40:27.181Z,71.44
2019-02-26T00:41:28.983Z,71.44
2019-02-26T00:42:28.840Z,71.55
2019-02-26T00:43:27.916Z,72.07
2019-02-26T00:44:27.928Z,71.75
2019-02-26T00:45:29.395Z,72.24
2019-02-26T00:46:28.498Z,72.17
2019-02-26T00:47:29.865Z,71.72
2019-02-26T00:48:27.089Z,71.72
2019-02-26T00:49:28.608Z,72.34
2019-02-26T00:50:28.138Z,72.21
2019-02-26T00:51:27.063Z,71.59
2019-02-26T00:52:28.323Z,71.48
2019-02-26T00:53:28.430Z,71.17
2019-02-26T00:54:29.109Z,71.38
2019-02-26T00:55:29.351Z,70.86
2019-02-26T00:56:29.152Z,70.65
2019-02-26T00:57:27.328Z,69.96
2019-02-26T00:58:26.980Z,70.06
2019-02-26T00:59:26.973Z,69.96
2019-02-26T01:00:28.509Z,70.61
2019-02-26T01:01:26.971Z,70.75
2019-02-26T01:02:26.941Z,72.00
2019-02-26T01:03:26.929Z,72.31
2019-02-26T01:04:26.917Z,72.62
2019-02-26T01:05:26.921Z,72.52
2019-02-26T01:06:28.890Z,73.25
2019-02-26T01:07:28.260Z,72.52
2019-02-26T01:08:26.869Z,72.41
2019-02-26T01:09:27.360Z,72.10
2019-02-26T01:10:26.880Z,72.52
2019-02-26T01:11:27.998Z,73.21
2019-02-26T01:12:26.825Z,72.31
2019-02-26T01:13:28.465Z,72.41
2019-02-26T01:14:26.842Z,72.83
2019-02-26T01:15:26.795Z,73.35
2019-02-26T01:16:26.783Z,73.46
2019-02-26T01:17:26.790Z,74.11
2019-02-26T01:18:28.608Z,74.21
2019-02-26T01:19:26.778Z,74.74
2019-02-26T01:20:27.518Z,74.21
2019-02-26T01:21:28.591Z,74.63
2019-02-26T01:22:26.731Z,74.95
2019-02-26T01:23:28.518Z,74.84
2019-02-26T01:24:28.089Z,74.74
2019-02-26T01:25:26.691Z,74.84
2019-02-26T01:26:27.815Z,75.15
2019-02-26T01:27:26.664Z,73.97
2019-02-26T01:28:27.431Z,75.05
2019-02-26T01:29:27.800Z,74.32
2019-02-26T01:30:28.882Z,74.43
2019-02-26T01:31:28.755Z,74.84
2019-02-26T01:32:26.614Z,73.80
2019-02-26T01:33:29.229Z,74.32
2019-02-26T01:34:26.638Z,74.11
2019-02-26T01:35:28.265Z,73.38
2019-02-26T01:36:26.573Z,74.32
2019-02-26T01:37:27.790Z,73.73
2019-02-26T01:38:26.550Z,74.35
2019-02-26T01:39:26.534Z,74.43
2019-02-26T01:40:26.549Z,74.32
2019-02-26T01:41:27.323Z,74.32
2019-02-26T01:42:27.100Z,74.43
2019-02-26T01:43:26.511Z,74.21
2019-02-26T01:44:30.203Z,73.90
2019-02-26T01:45:29.834Z,74.21
2019-02-26T01:46:26.476Z,74.70
2019-02-26T01:47:28.402Z,73.87
2019-02-26T01:48:26.436Z,73.14
2019-02-26T01:49:28.393Z,73.35
2019-02-26T01:50:28.013Z,73.38
2019-02-26T01:51:28.483Z,73.69
2019-02-26T01:52:26.397Z,73.49
2019-02-26T01:53:27.337Z,73.18
2019-02-26T01:54:28.109Z,73.73
2019-02-26T01:55:27.649Z,74.43
2019-02-26T01:56:26.409Z,74.32
2019-02-26T01:57:27.739Z,73.59
2019-02-26T01:58:26.339Z,73.38
2019-02-26T01:59:26.317Z,74.01
2019-02-26T02:00:26.335Z,73.90
2019-02-26T02:01:26.321Z,74.01
2019-02-26T02:02:28.274Z,73.38
2019-02-26T02:03:27.993Z,73.49
2019-02-26T02:04:26.270Z,73.69
2019-02-26T02:05:28.744Z,72.97
2019-02-26T02:06:26.287Z,73.28
2019-02-26T02:07:28.102Z,73.28
2019-02-26T02:08:26.218Z,73.38
2019-02-26T02:09:26.236Z,73.66
2019-02-26T02:10:26.204Z,74.01
2019-02-26T02:11:28.591Z,73.69
2019-02-26T02:12:29.539Z,73.80
2019-02-26T02:13:28.709Z,73.69
2019-02-26T02:14:26.159Z,73.59
2019-02-26T02:15:26.148Z,73.56
2019-02-26T02:16:28.537Z,73.28
2019-02-26T02:17:26.189Z,73.28
2019-02-26T02:18:28.140Z,73.42
2019-02-26T02:19:27.616Z,73.52
2019-02-26T02:20:26.093Z,73.86
2019-02-26T02:21:28.371Z,74.56
2019-02-26T02:22:26.069Z,74.70
2019-02-26T02:23:27.958Z,74.60
2019-02-26T02:24:26.049Z,75.01
2019-02-26T02:25:29.020Z,75.32
2019-02-26T02:26:27.021Z,75.40
2019-02-26T02:27:28.167Z,75.92
2019-02-26T02:28:28.102Z,75.85
2019-02-26T02:29:28.393Z,75.92
2019-02-26T02:30:30.233Z,75.40
2019-02-26T02:31:30.380Z,75.29
2019-02-26T02:32:28.235Z,75.40
2019-02-26T02:33:27.544Z,75.29
2019-02-26T02:34:27.036Z,75.12
2019-02-26T02:35:25.926Z,74.98
2019-02-26T02:36:26.606Z,75.09
2019-02-26T02:37:26.929Z,75.32
2019-02-26T02:38:25.909Z,75.32
2019-02-26T02:39:26.519Z,75.32
2019-02-26T02:40:25.875Z,75.74
2019-02-26T02:41:25.894Z,75.74
2019-02-26T02:43:33.508Z,75.32
2019-02-26T02:44:25.825Z,75.36
2019-02-26T02:45:25.814Z,75.15
2019-02-26T02:46:25.817Z,75.46
2019-02-26T02:47:28.557Z,75.88
2019-02-26T02:48:25.778Z,75.98
2019-02-26T02:49:25.778Z,76.30
2019-02-26T02:50:25.766Z,75.64
2019-02-26T02:51:28.021Z,75.46
2019-02-26T02:52:27.038Z,75.53
2019-02-26T02:53:27.397Z,75.43
2019-02-26T02:54:26.189Z,75.36
2019-02-26T02:55:25.700Z,75.46
2019-02-26T02:56:25.722Z,75.78
2019-02-26T02:57:27.016Z,76.20
2019-02-26T02:58:26.067Z,76.09
2019-02-26T02:59:25.689Z,75.78
2019-02-26T03:00:26.648Z,75.85
2019-02-26T03:01:28.682Z,75.74
2019-02-26T03:02:25.631Z,75.32
2019-02-26T03:03:25.625Z,75.53
2019-02-26T03:04:28.346Z,75.12
2019-02-26T03:05:26.593Z,75.29
2019-02-26T03:06:28.224Z,75.50
2019-02-26T03:07:27.480Z,75.50
2019-02-26T03:08:25.556Z,75.19
2019-02-26T03:09:25.558Z,74.77
2019-02-26T03:10:28.411Z,75.09
2019-02-26T03:11:26.524Z,73.42
2019-02-26T03:12:25.544Z,73.59
2019-02-26T03:13:27.898Z,74.46
2019-02-26T03:14:25.501Z,74.77
2019-02-26T03:15:27.360Z,74.25
2019-02-26T03:16:27.172Z,73.63
2019-02-26T03:17:25.494Z,73.63
2019-02-26T03:18:25.467Z,73.76
2019-02-26T03:19:25.448Z,74.70
2019-02-26T03:20:28.718Z,74.39
2019-02-26T03:21:27.801Z,74.84
2019-02-26T03:22:25.404Z,74.95
2019-02-26T03:23:25.411Z,75.15
2019-02-26T03:24:27.978Z,75.36
2019-02-26T03:25:27.162Z,75.78
2019-02-26T03:26:27.458Z,75.78
2019-02-26T03:27:27.836Z,75.85
2019-02-26T03:28:25.380Z,75.85
2019-02-26T03:29:25.329Z,75.95
2019-02-26T03:30:32.810Z,75.32
2019-02-26T03:31:30.984Z,75.01
2019-02-26T03:32:26.298Z,75.01
2019-02-26T03:33:25.494Z,74.80
2019-02-26T03:34:25.901Z,74.18
2019-02-26T03:35:25.263Z,74.70
2019-02-26T03:36:25.261Z,74.91
2019-02-26T03:37:25.812Z,75.12
2019-02-26T03:38:26.873Z,75.46
2019-02-26T03:39:25.246Z,75.12
2019-02-26T03:40:27.220Z,75.95
2019-02-26T03:41:26.422Z,75.88
2019-02-26T03:42:25.188Z,75.95
2019-02-26T03:43:25.172Z,75.95
2019-02-26T03:44:29.579Z,75.98
2019-02-26T03:45:26.156Z,75.74
2019-02-26T03:46:25.138Z,75.78
2019-02-26T03:47:25.129Z,75.98
2019-02-26T03:48:25.139Z,75.88
2019-02-26T03:49:27.022Z,76.89
2019-02-26T03:50:27.120Z,76.89
2019-02-26T03:51:25.088Z,76.78
2019-02-26T03:52:25.081Z,75.85
2019-02-26T03:53:28.028Z,76.37
2019-02-26T03:54:25.053Z,75.32
2019-02-26T03:55:25.120Z,75.01
2019-02-26T03:56:25.034Z,75.05
2019-02-26T03:57:25.019Z,75.22
2019-02-26T03:58:25.026Z,75.78
2019-02-26T03:59:25.008Z,76.09
2019-02-26T04:00:25.053Z,76.96
2019-02-26T04:01:24.982Z,76.86
2019-02-26T04:02:24.966Z,77.34
2019-02-26T04:03:24.954Z,77.58
2019-02-26T04:04:26.138Z,76.86
2019-02-26T04:05:24.943Z,76.86
2019-02-26T04:06:24.956Z,76.54
2019-02-26T04:07:26.031Z,77.06
2019-02-26T04:08:26.888Z,78.00
2019-02-26T04:09:24.905Z,78.11
2019-02-26T04:10:24.877Z,78.83
2019-02-26T04:11:27.607Z,78.31
2019-02-26T04:12:24.854Z,78.73
2019-02-26T04:13:24.842Z,79.01
2019-02-26T04:14:26.231Z,78.59
2019-02-26T04:15:27.238Z,78.28
2019-02-26T04:16:24.809Z,77.72
2019-02-26T04:17:27.922Z,77.72
2019-02-26T04:18:24.789Z,76.89
2019-02-26T04:19:26.733Z,76.89
2019-02-26T04:20:26.937Z,76.89
2019-02-26T04:21:24.752Z,76.99
2019-02-26T04:22:26.394Z,76.68
2019-02-26T04:23:24.781Z,76.06
2019-02-26T04:24:25.892Z,75.88
2019-02-26T04:25:27.705Z,76.99
2019-02-26T04:26:26.451Z,76.61
2019-02-26T04:27:24.698Z,77.03
2019-02-26T04:28:27.372Z,76.92
2019-02-26T04:29:24.687Z,76.82
2019-02-26T04:30:24.665Z,77.03
2019-02-26T04:31:24.651Z,77.13
2019-02-26T04:32:24.648Z,77.03
2019-02-26T04:33:24.655Z,76.92
2019-02-26T04:34:24.646Z,76.82
2019-02-26T04:35:24.602Z,76.72
2019-02-26T04:36:24.622Z,76.57
2019-02-26T04:37:25.384Z,76.92
2019-02-26T04:38:26.705Z,76.89
2019-02-26T04:39:24.585Z,76.68
2019-02-26T04:40:27.236Z,76.26
2019-02-26T04:41:24.578Z,76.06
2019-02-26T04:42:24.526Z,75.53
2019-02-26T04:43:25.445Z,75.53
2019-02-26T04:44:26.846Z,75.85
2019-02-26T04:45:24.518Z,75.78
2019-02-26T04:46:25.555Z,75.74
2019-02-26T04:47:26.763Z,76.82
2019-02-26T04:48:26.923Z,76.92
2019-02-26T04:49:27.109Z,76.92
2019-02-26T04:50:28.590Z,76.92
2019-02-26T04:51:25.429Z,77.23
2019-02-26T04:52:24.421Z,77.03
2019-02-26T04:53:25.804Z,76.82
2019-02-26T04:54:26.994Z,77.03
2019-02-26T04:55:28.980Z,76.92
2019-02-26T04:56:24.379Z,77.13
2019-02-26T04:57:24.358Z,76.92
2019-02-26T04:58:24.365Z,76.72
2019-02-26T04:59:24.341Z,76.82
2019-02-26T05:00:27.990Z,76.65
2019-02-26T05:01:25.333Z,77.27
2019-02-26T05:02:24.311Z,77.27
2019-02-26T05:03:24.294Z,77.37
2019-02-26T05:04:24.292Z,77.37
2019-02-26T05:05:25.891Z,77.27
2019-02-26T05:06:24.284Z,78.11
2019-02-26T05:07:24.251Z,77.90
2019-02-26T05:08:24.260Z,78.11
2019-02-26T05:09:25.330Z,77.17
2019-02-26T05:10:26.553Z,76.92
2019-02-26T05:11:31.689Z,76.92
2019-02-26T05:12:25.914Z,77.37
2019-02-26T05:13:25.252Z,77.55
2019-02-26T05:14:24.179Z,77.34
2019-02-26T05:15:26.427Z,77.34
2019-02-26T05:16:26.630Z,77.03
2019-02-26T05:17:27.252Z,76.82
2019-02-26T05:18:25.959Z,76.92
2019-02-26T05:19:24.397Z,76.30
2019-02-26T05:20:24.116Z,76.92
2019-02-26T05:21:24.904Z,76.96
2019-02-26T05:22:25.573Z,77.06
2019-02-26T05:23:25.897Z,77.27
2019-02-26T05:24:26.242Z,78.00
2019-02-26T05:25:24.057Z,77.90
2019-02-26T05:26:24.046Z,78.42
2019-02-26T05:27:24.925Z,78.11
2019-02-26T05:28:24.022Z,78.21
2019-02-26T05:29:24.012Z,78.31
2019-02-26T05:30:24.009Z,78.00
2019-02-26T05:31:23.995Z,78.42
2019-02-26T05:32:26.930Z,78.14
2019-02-26T05:33:25.276Z,79.25
2019-02-26T05:34:25.931Z,79.25
2019-02-26T05:35:25.298Z,79.57
2019-02-26T05:36:23.937Z,79.08
2019-02-26T05:37:23.952Z,79.05
2019-02-26T05:38:24.589Z,79.36
2019-02-26T05:39:26.179Z,79.19
2019-02-26T05:40:23.893Z,79.05
2019-02-26T05:41:23.897Z,78.52
2019-02-26T05:42:23.880Z,77.90
2019-02-26T05:43:26.310Z,77.27
2019-02-26T05:44:23.858Z,77.37
2019-02-26T05:45:26.311Z,77.37
2019-02-26T05:46:25.038Z,77.62
2019-02-26T05:47:24.696Z,77.62
2019-02-26T05:48:25.938Z,78.04
2019-02-26T05:49:23.802Z,77.94
2019-02-26T05:50:23.807Z,78.56
2019-02-26T05:51:24.501Z,78.56
2019-02-26T05:52:25.012Z,78.45
2019-02-26T05:53:23.776Z,78.42
2019-02-26T05:54:24.518Z,78.42
2019-02-26T05:55:25.632Z,78.52
2019-02-26T05:56:23.728Z,78.94
2019-02-26T05:57:27.662Z,78.63
2019-02-26T05:58:24.719Z,78.17
2019-02-26T05:59:23.698Z,77.27
2019-02-26T06:00:26.255Z,77.23
2019-02-26T06:01:25.872Z,77.23
2019-02-26T06:02:24.625Z,76.96
2019-02-26T06:03:23.687Z,77.48
2019-02-26T06:04:23.644Z,78.31
2019-02-26T06:05:26.042Z,77.48
2019-02-26T06:06:23.619Z,78.04
2019-02-26T06:07:27.051Z,77.94
2019-02-26T06:08:25.884Z,78.56
2019-02-26T06:09:26.148Z,79.53
2019-02-26T06:10:24.474Z,80.41
2019-02-26T06:11:28.285Z,80.82
2019-02-26T06:12:24.560Z,81.13
2019-02-26T06:13:23.546Z,81.13
2019-02-26T06:14:25.487Z,81.24
2019-02-26T06:15:25.706Z,81.21
2019-02-26T06:16:24.471Z,80.93
2019-02-26T06:17:23.504Z,80.93
2019-02-26T06:18:23.488Z,80.93
2019-02-26T06:19:23.497Z,80.72
2019-02-26T06:20:26.016Z,80.79
2019-02-26T06:21:24.146Z,80.79
2019-02-26T06:22:26.420Z,80.79
2019-02-26T06:23:25.404Z,81.03
2019-02-26T06:24:24.815Z,80.89
2019-02-26T06:25:24.494Z,80.37
2019-02-26T06:26:28.000Z,79.95
2019-02-26T06:27:27.139Z,80.16
2019-02-26T06:28:23.386Z,80.27
2019-02-26T06:29:24.715Z,80.58
2019-02-26T06:30:23.378Z,80.33
2019-02-26T06:31:24.947Z,80.33
2019-02-26T06:32:27.511Z,79.81
2019-02-26T06:33:23.349Z,79.19
2019-02-26T06:34:23.317Z,79.08
2019-02-26T06:35:23.326Z,78.66
2019-02-26T06:36:23.903Z,78.66
2019-02-26T06:37:23.693Z,78.35
2019-02-26T06:38:24.125Z,79.11
2019-02-26T06:39:24.580Z,79.33
2019-02-26T06:40:23.302Z,79.43
2019-02-26T06:41:23.242Z,79.78
2019-02-26T06:42:23.232Z,80.58
2019-02-26T06:43:23.263Z,80.58
2019-02-26T06:44:23.220Z,80.37
2019-02-26T06:45:23.239Z,80.37
2019-02-26T06:46:23.191Z,80.51
2019-02-26T06:47:25.930Z,80.93
2019-02-26T06:48:25.016Z,80.79
2019-02-26T06:49:24.581Z,80.58
2019-02-26T06:50:23.165Z,80.99
2019-02-26T06:51:24.299Z,81.21
2019-02-26T06:52:23.133Z,80.99
2019-02-26T06:53:23.147Z,81.16
2019-02-26T06:54:25.063Z,80.85
2019-02-26T06:55:23.094Z,80.75
2019-02-26T06:56:23.079Z,80.85
2019-02-26T06:57:23.077Z,80.54
2019-02-26T06:58:23.064Z,80.40
2019-02-26T06:59:24.729Z,80.51
2019-02-26T07:00:26.566Z,79.77
2019-02-26T07:01:23.035Z,79.46
2019-02-26T07:02:23.036Z,79.25
2019-02-26T07:03:24.806Z,79.15
2019-02-26T07:04:23.023Z,79.36
2019-02-26T07:05:24.500Z,79.46
2019-02-26T07:06:25.493Z,79.60
2019-02-26T07:07:22.963Z,79.57
2019-02-26T07:08:24.204Z,79.81
2019-02-26T07:09:22.946Z,79.81
2019-02-26T07:10:26.037Z,79.57
2019-02-26T07:11:25.614Z,79.50
2019-02-26T07:12:24.091Z,79.71
2019-02-26T07:13:22.900Z,80.02
2019-02-26T07:14:24.835Z,80.33
2019-02-26T07:15:22.913Z,80.02
2019-02-26T07:16:22.869Z,79.88
2019-02-26T07:17:22.861Z,79.67
2019-02-26T07:18:22.846Z,80.30
2019-02-26T07:19:22.837Z,80.30
2019-02-26T07:20:22.858Z,80.16
2019-02-26T07:21:22.823Z,80.26
2019-02-26T07:22:22.802Z,80.05
2019-02-26T07:23:22.802Z,79.63
2019-02-26T07:24:24.487Z,79.63
2019-02-26T07:25:22.772Z,79.63
2019-02-26T07:26:23.116Z,80.05
2019-02-26T07:27:22.749Z,79.80
2019-02-26T07:28:24.511Z,79.70
2019-02-26T07:29:22.737Z,79.08
2019-02-26T07:30:22.725Z,78.66
2019-02-26T07:31:24.341Z,78.56
2019-02-26T07:32:24.550Z,78.45
2019-02-26T07:33:22.690Z,77.93
2019-02-26T07:34:23.288Z,78.24
2019-02-26T07:35:22.687Z,79.39
2019-02-26T07:36:23.753Z,79.18
2019-02-26T07:37:22.664Z,79.80
2019-02-26T07:38:23.019Z,79.08
2019-02-26T07:39:22.815Z,79.49
2019-02-26T07:40:22.616Z,79.49
2019-02-26T07:41:23.147Z,79.56
2019-02-26T07:42:22.600Z,79.21
2019-02-26T07:43:22.701Z,79.00
2019-02-26T07:44:24.150Z,79.32
2019-02-26T07:45:24.798Z,78.34
2019-02-26T07:46:22.566Z,78.34
2019-02-26T07:47:24.276Z,77.58
2019-02-26T07:48:23.844Z,77.16
2019-02-26T07:49:22.512Z,76.75
2019-02-26T07:50:22.502Z,76.72
2019-02-26T07:51:22.507Z,76.82
2019-02-26T07:52:24.203Z,77.96
2019-02-26T07:53:24.569Z,78.27
2019-02-26T07:54:22.469Z,78.69
2019-02-26T07:55:22.471Z,77.34
2019-02-26T07:56:23.090Z,76.78
2019-02-26T07:57:23.027Z,76.68
2019-02-26T07:58:22.421Z,75.95
2019-02-26T07:59:27.592Z,76.64
2019-02-26T08:00:23.398Z,75.40
2019-02-26T08:01:22.391Z,75.71
2019-02-26T08:02:22.385Z,75.67
2019-02-26T08:03:24.776Z,76.40
2019-02-26T08:04:22.398Z,76.40
2019-02-26T08:05:25.716Z,76.19
2019-02-26T08:06:22.350Z,75.85
2019-02-26T08:07:24.376Z,74.81
2019-02-26T08:08:22.314Z,74.40
2019-02-26T08:09:23.663Z,74.50
2019-02-26T08:10:22.292Z,73.22
2019-02-26T08:11:22.980Z,73.01
2019-02-26T08:12:22.282Z,73.11
2019-02-26T08:13:24.385Z,72.67
2019-02-26T08:14:23.372Z,72.56
2019-02-26T08:15:22.229Z,72.36
2019-02-26T08:16:23.603Z,72.84
2019-02-26T08:17:22.226Z,71.80
2019-02-26T08:18:22.210Z,72.29
2019-02-26T08:19:22.270Z,73.01
2019-02-26T08:20:22.180Z,72.91
2019-02-26T08:21:24.712Z,71.01
2019-02-26T08:22:22.161Z,70.01
2019-02-26T08:23:23.887Z,70.29
2019-02-26T08:24:24.516Z,70.50
2019-02-26T08:25:22.130Z,70.91
2019-02-26T08:26:23.871Z,70.81
2019-02-26T08:27:22.094Z,69.84
2019-02-26T08:28:23.043Z,69.74
2019-02-26T08:29:23.952Z,69.53
2019-02-26T08:30:24.203Z,68.80
2019-02-26T08:31:23.278Z,68.60
2019-02-26T08:32:23.956Z,68.22
2019-02-26T08:33:22.036Z,68.84
2019-02-26T08:34:22.033Z,67.39
2019-02-26T08:35:22.032Z,67.36
2019-02-26T08:36:22.006Z,67.25
2019-02-26T08:37:21.997Z,67.46
2019-02-26T08:38:21.998Z,68.29
2019-02-26T08:39:21.967Z,67.02
2019-02-26T08:40:21.970Z,67.05
2019-02-26T08:41:21.942Z,67.02
2019-02-26T08:42:21.932Z,66.26
2019-02-26T08:43:21.924Z,65.85
2019-02-26T08:44:21.916Z,65.02
2019-02-26T08:45:23.605Z,65.95
2019-02-26T08:46:21.901Z,65.95
2019-02-26T08:47:23.502Z,65.72
2019-02-26T08:48:22.840Z,65.41
2019-02-26T08:49:22.556Z,65.41
2019-02-26T08:50:21.893Z,65.17
2019-02-26T08:51:21.846Z,64.83
2019-02-26T08:52:24.243Z,63.72
2019-02-26T08:53:22.580Z,64.31
2019-02-26T08:54:23.829Z,63.07
2019-02-26T08:55:24.502Z,62.35
2019-02-26T08:56:23.899Z,62.55
2019-02-26T08:57:21.769Z,62.97
2019-02-26T08:58:23.478Z,62.87
2019-02-26T08:59:21.750Z,63.25
2019-02-26T09:00:21.739Z,62.63
2019-02-26T09:01:21.744Z,63.04
2019-02-26T09:02:21.715Z,62.63
2019-02-26T09:03:21.706Z,62.71
2019-02-26T09:04:23.757Z,61.40
2019-02-26T09:05:23.954Z,62.08
2019-02-26T09:06:21.693Z,62.29
2019-02-26T09:07:23.583Z,61.96
2019-02-26T09:08:21.679Z,62.06
2019-02-26T09:09:22.953Z,62.26
2019-02-26T09:10:23.373Z,62.16
2019-02-26T09:11:21.619Z,61.24
2019-02-26T09:12:22.397Z,61.61
2019-02-26T09:13:21.624Z,61.61
2019-02-26T09:14:21.590Z,61.00
2019-02-26T09:15:21.580Z,61.41
2019-02-26T09:16:22.294Z,60.79
2019-02-26T09:17:24.380Z,60.49
2019-02-26T09:18:24.784Z,60.46
2019-02-26T09:19:22.690Z,60.97
2019-02-26T09:20:21.544Z,59.91
2019-02-26T09:21:22.868Z,59.91
2019-02-26T09:22:23.383Z,59.19
2019-02-26T09:23:23.534Z,58.75
2019-02-26T09:24:21.475Z,58.58
2019-02-26T09:25:25.566Z,58.75
2019-02-26T09:26:21.482Z,59.06
2019-02-26T09:27:21.490Z,58.65
2019-02-26T09:28:22.415Z,58.83
2019-02-26T09:29:22.243Z,58.03
2019-02-26T09:30:21.418Z,57.70
2019-02-26T09:31:21.423Z,57.42
2019-02-26T09:32:21.536Z,57.82
2019-02-26T09:33:21.388Z,58.14
2019-02-26T09:34:21.370Z,58.21
2019-02-26T09:35:25.353Z,57.70
2019-02-26T09:36:23.621Z,57.80
2019-02-26T09:37:21.354Z,58.11
2019-02-26T09:38:22.978Z,58.18
2019-02-26T09:39:21.343Z,57.16
2019-02-26T09:40:23.691Z,56.64
2019-02-26T09:41:21.569Z,57.03
2019-02-26T09:42:23.234Z,55.59
2019-02-26T09:43:22.544Z,54.07
2019-02-26T09:44:21.262Z,53.97
2019-02-26T09:45:25.400Z,53.85
2019-02-26T09:46:21.238Z,54.87
2019-02-26T09:47:23.384Z,53.41
2019-02-26T09:48:21.987Z,52.59
2019-02-26T09:49:21.208Z,53.33
2019-02-26T09:50:22.619Z,54.02
2019-02-26T09:51:21.201Z,54.13
2019-02-26T09:52:25.170Z,53.61
2019-02-26T09:53:22.176Z,53.41
2019-02-26T09:54:22.571Z,53.41
2019-02-26T09:55:21.151Z,51.74
2019-02-26T09:56:21.124Z,51.76
2019-02-26T09:57:23.388Z,52.97
2019-02-26T09:58:23.019Z,52.56
2019-02-26T09:59:21.093Z,52.25
2019-02-26T10:00:23.662Z,53.17
2019-02-26T10:01:21.069Z,52.33
2019-02-26T10:02:21.946Z,52.02
2019-02-26T10:03:21.100Z,52.23
2019-02-26T10:04:22.095Z,52.41
2019-02-26T10:05:21.031Z,51.31
2019-02-26T10:06:21.673Z,50.38
2019-02-26T10:07:21.030Z,50.38
2019-02-26T10:08:22.332Z,50.18
2019-02-26T10:09:20.985Z,50.36
2019-02-26T10:10:21.010Z,50.56
2019-02-26T10:11:23.031Z,49.85
2019-02-26T10:12:20.968Z,49.72
2019-02-26T10:13:22.766Z,49.74
2019-02-26T10:14:20.930Z,49.62
2019-02-26T10:15:20.920Z,50.05
2019-02-26T10:16:21.714Z,48.41
2019-02-26T10:17:21.485Z,48.69
2019-02-26T10:18:21.502Z,49.54
2019-02-26T10:19:20.877Z,49.00
2019-02-26T10:20:24.777Z,48.18
2019-02-26T10:21:20.862Z,48.49
2019-02-26T10:22:20.875Z,48.28
2019-02-26T10:23:21.698Z,48.49
2019-02-26T10:24:22.981Z,49.10
2019-02-26T10:25:23.081Z,49.62
2019-02-26T10:26:20.827Z,49.10
2019-02-26T10:27:20.806Z,49.18
2019-02-26T10:28:21.545Z,48.57
2019-02-26T10:29:20.768Z,48.77
2019-02-26T10:30:20.784Z,48.26
2019-02-26T10:31:24.142Z,49.29
2019-02-26T10:32:20.760Z,48.65
2019-02-26T10:33:21.144Z,48.77
2019-02-26T10:34:22.440Z,48.65
2019-02-26T10:35:25.595Z,47.63
2019-02-26T10:36:21.692Z,48.14
2019-02-26T10:37:20.711Z,47.83
2019-02-26T10:38:20.664Z,47.83
2019-02-26T10:39:23.166Z,47.71
2019-02-26T10:40:20.660Z,47.91
2019-02-26T10:41:21.258Z,47.60
2019-02-26T10:42:20.655Z,47.71
2019-02-26T10:43:20.634Z,46.89
2019-02-26T10:44:20.604Z,47.17
2019-02-26T10:45:20.599Z,47.30
2019-02-26T10:46:20.600Z,47.30
2019-02-26T10:47:22.764Z,46.99
2019-02-26T10:48:22.777Z,47.40
2019-02-26T10:49:20.557Z,47.78
2019-02-26T10:50:22.488Z,47.78
2019-02-26T10:51:26.124Z,47.78
2019-02-26T10:52:22.095Z,47.58
2019-02-26T10:53:22.663Z,47.27
2019-02-26T10:54:20.491Z,47.89
2019-02-26T10:55:21.875Z,47.17
2019-02-26T10:56:20.473Z,47.27
2019-02-26T10:57:20.502Z,47.07
2019-02-26T10:58:20.454Z,47.17
2019-02-26T10:59:20.445Z,47.78
2019-02-26T11:00:22.583Z,47.86
2019-02-26T11:01:23.575Z,47.76
2019-02-26T11:02:23.093Z,47.45
2019-02-26T11:03:20.403Z,48.07
2019-02-26T11:04:20.382Z,47.97
2019-02-26T11:05:25.686Z,47.86
2019-02-26T11:06:21.363Z,47.94
2019-02-26T11:07:20.677Z,48.07
2019-02-26T11:08:23.067Z,47.76
2019-02-26T11:09:25.350Z,47.13
2019-02-26T11:10:23.219Z,47.13
2019-02-26T11:11:20.307Z,46.62
2019-02-26T11:12:22.697Z,47.33
2019-02-26T11:13:23.056Z,47.64
2019-02-26T11:14:21.303Z,47.23
2019-02-26T11:15:22.037Z,47.20
2019-02-26T11:16:24.826Z,48.02
2019-02-26T11:17:23.497Z,47.92
2019-02-26T11:18:21.087Z,47.82
2019-02-26T11:19:20.225Z,47.82
2019-02-26T11:20:21.862Z,48.23
2019-02-26T11:21:20.226Z,47.82
2019-02-26T11:22:22.618Z,47.31
2019-02-26T11:23:30.004Z,46.80
2019-02-26T11:24:23.458Z,47.11
2019-02-26T11:25:22.298Z,47.41
2019-02-26T11:26:20.142Z,46.39
2019-02-26T11:27:20.134Z,47.08
2019-02-26T11:28:20.127Z,46.16
2019-02-26T11:29:20.133Z,46.08
2019-02-26T11:30:21.116Z,46.70
2019-02-26T11:31:25.010Z,46.37
2019-02-26T11:32:21.078Z,45.76
2019-02-26T11:33:20.698Z,45.65
2019-02-26T11:34:20.099Z,46.47
2019-02-26T11:35:22.026Z,45.25
2019-02-26T11:36:20.079Z,44.84
2019-02-26T11:37:20.672Z,44.43
2019-02-26T11:38:21.984Z,43.82
2019-02-26T11:39:20.002Z,43.91
2019-02-26T11:40:22.159Z,43.49
2019-02-26T11:41:19.978Z,43.90
2019-02-26T11:42:21.208Z,43.29
2019-02-26T11:43:23.014Z,43.90
2019-02-26T11:44:22.753Z,43.49
2019-02-26T11:45:19.948Z,43.90
2019-02-26T11:46:20.751Z,43.47
2019-02-26T11:47:20.637Z,42.76
2019-02-26T11:48:21.299Z,43.26
2019-02-26T11:49:21.671Z,42.65
2019-02-26T11:50:19.878Z,43.57
2019-02-26T11:51:20.085Z,42.33
2019-02-26T11:52:20.265Z,42.43
2019-02-26T11:53:19.845Z,42.83
2019-02-26T11:54:19.853Z,42.63
2019-02-26T11:55:19.834Z,42.00
2019-02-26T11:56:22.998Z,42.00
2019-02-26T11:57:19.828Z,42.10
2019-02-26T11:58:21.827Z,42.30
2019-02-26T11:59:19.799Z,42.71
2019-02-26T12:00:25.374Z,42.82
2019-02-26T12:01:20.758Z,41.89
2019-02-26T12:02:26.653Z,41.69
2019-02-26T12:03:24.968Z,42.10
2019-02-26T12:04:19.768Z,41.80
2019-02-26T12:05:19.715Z,41.80
2019-02-26T12:06:19.712Z,40.67
2019-02-26T12:07:19.691Z,41.78
2019-02-26T12:08:22.257Z,41.88
2019-02-26T12:09:19.679Z,41.27
2019-02-26T12:10:19.686Z,41.67
2019-02-26T12:11:20.324Z,42.18
2019-02-26T12:12:19.643Z,43.00
2019-02-26T12:13:20.365Z,41.78
2019-02-26T12:14:21.587Z,41.98
2019-02-26T12:15:19.642Z,41.98
2019-02-26T12:16:19.599Z,41.57
2019-02-26T12:17:19.580Z,41.45
2019-02-26T12:18:20.429Z,41.96
2019-02-26T12:19:19.564Z,41.67
2019-02-26T12:20:21.884Z,41.55
2019-02-26T12:21:19.539Z,41.86
2019-02-26T12:22:20.417Z,41.45
2019-02-26T12:23:22.551Z,41.45
2019-02-26T12:24:19.504Z,41.75
2019-02-26T12:25:19.508Z,42.14
2019-02-26T12:26:22.108Z,41.53
2019-02-26T12:27:21.544Z,40.31
2019-02-26T12:28:19.464Z,42.04
2019-02-26T12:29:21.068Z,41.74
2019-02-26T12:30:20.642Z,41.94
2019-02-26T12:31:19.476Z,41.63
2019-02-26T12:32:21.760Z,41.63
2019-02-26T12:33:19.419Z,40.92
2019-02-26T12:34:20.817Z,41.63
2019-02-26T12:35:19.386Z,40.31
2019-02-26T12:36:21.285Z,40.11
2019-02-26T12:37:19.381Z,41.84
2019-02-26T12:38:21.382Z,41.53
2019-02-26T12:39:21.398Z,40.62
2019-02-26T12:40:20.050Z,41.74
2019-02-26T12:41:20.954Z,41.94
2019-02-26T12:42:21.643Z,41.63
2019-02-26T12:43:19.391Z,40.33
2019-02-26T12:44:19.286Z,41.86
2019-02-26T12:45:19.302Z,41.86
2019-02-26T12:46:21.269Z,41.96
2019-02-26T12:47:21.868Z,39.51
2019-02-26T12:48:22.676Z,40.03
2019-02-26T12:49:22.395Z,38.49
2019-02-26T12:50:19.247Z,37.88
2019-02-26T12:51:22.162Z,38.80
2019-02-26T12:52:21.884Z,38.80
2019-02-26T12:53:20.617Z,37.88